createdAt,value
2022-11-20T00:01:54.160Z,74.67
2022-11-20T00:04:55.929Z,75.58
2022-11-20T00:07:57.822Z,75.18
2022-11-20T00:11:15.550Z,74.71
2022-11-20T00:14:18.117Z,73.79
2022-11-20T00:17:19.901Z,73.79
2022-11-20T00:20:21.808Z,73.40
2022-11-20T00:23:23.618Z,72.65
2022-11-20T00:26:28.998Z,73.80
2022-11-20T00:29:30.755Z,74.37
2022-11-20T00:32:32.648Z,74.58
2022-11-20T00:35:34.419Z,73.22
2022-11-20T00:38:36.438Z,73.96
2022-11-20T00:41:38.190Z,73.99
2022-11-20T00:44:39.927Z,74.36
2022-11-20T00:47:41.622Z,75.06
2022-11-20T00:50:43.540Z,75.49
2022-11-20T00:53:45.771Z,76.08
2022-11-20T00:56:47.475Z,76.30
2022-11-20T00:59:49.164Z,76.18
2022-11-20T01:02:50.855Z,77.37
2022-11-20T01:05:52.640Z,78.10
2022-11-20T01:08:57.016Z,79.80
2022-11-20T01:12:00.217Z,80.44
2022-11-20T01:15:02.088Z,80.76
2022-11-20T01:18:04.068Z,81.14
2022-11-20T01:21:07.993Z,81.42
2022-11-20T01:24:13.030Z,81.02
2022-11-20T01:27:14.870Z,81.61
2022-11-20T01:30:16.577Z,81.37
2022-11-20T01:33:18.468Z,81.12
2022-11-20T01:36:22.235Z,81.37
2022-11-20T01:39:26.046Z,81.92
2022-11-20T01:42:46.973Z,82.68
2022-11-20T01:46:05.863Z,83.60
2022-11-20T01:49:08.751Z,84.15
2022-11-20T01:52:17.701Z,84.62
2022-11-20T01:55:23.290Z,84.55
2022-11-20T01:58:30.180Z,84.65
2022-11-20T02:01:40.284Z,83.62
2022-11-20T02:04:42.179Z,83.70
2022-11-20T02:07:44.556Z,84.30
2022-11-20T02:10:46.235Z,84.62
2022-11-20T02:13:48.788Z,83.91
2022-11-20T02:16:51.041Z,83.17
2022-11-20T02:19:52.868Z,82.96
2022-11-20T02:23:02.928Z,82.06
2022-11-20T02:26:07.284Z,82.48
2022-11-20T02:29:09.123Z,81.17
2022-11-20T02:32:30.528Z,81.85
2022-11-20T02:35:32.555Z,83.46
2022-11-20T02:38:34.383Z,82.98
2022-11-20T02:41:38.032Z,82.82
2022-11-20T02:44:39.959Z,82.94
2022-11-20T02:47:41.747Z,84.06
2022-11-20T02:50:43.801Z,84.17
2022-11-20T02:53:45.649Z,83.02
2022-11-20T02:56:47.359Z,84.09
2022-11-20T02:59:49.207Z,85.36
2022-11-20T03:02:50.971Z,85.45
2022-11-20T03:05:52.640Z,86.07
2022-11-20T03:08:54.712Z,85.81
2022-11-20T03:11:56.583Z,84.73
2022-11-20T03:14:58.412Z,84.90
2022-11-20T03:18:00.301Z,84.87
2022-11-20T03:21:02.149Z,84.72
2022-11-20T03:24:04.320Z,85.47
2022-11-20T03:27:06.043Z,85.06
2022-11-20T03:30:08.584Z,84.15
2022-11-20T03:33:10.618Z,84.70
2022-11-20T03:36:14.023Z,85.52
2022-11-20T03:39:15.693Z,85.95
2022-11-20T03:42:36.159Z,86.14
2022-11-20T03:45:37.856Z,86.58
2022-11-20T03:48:39.579Z,86.28
2022-11-20T03:51:41.518Z,86.34
2022-11-20T03:54:43.288Z,86.43
2022-11-20T03:57:44.943Z,87.08
2022-11-20T04:00:49.247Z,87.05
2022-11-20T04:03:53.644Z,86.48
2022-11-20T04:06:55.507Z,85.39
2022-11-20T04:09:57.494Z,85.98
2022-11-20T04:12:59.145Z,85.57
2022-11-20T04:16:00.915Z,85.37
2022-11-20T04:19:04.995Z,85.38
2022-11-20T04:22:06.803Z,84.32
2022-11-20T04:25:09.084Z,85.21
2022-11-20T04:28:10.914Z,86.44
2022-11-20T04:31:15.323Z,87.42
2022-11-20T04:34:17.019Z,87.42
2022-11-20T04:37:18.890Z,87.09
2022-11-20T04:40:20.689Z,86.13
2022-11-20T04:43:22.381Z,86.95
2022-11-20T04:46:24.068Z,86.90
2022-11-20T04:49:25.827Z,87.56
2022-11-20T04:52:27.675Z,88.08
2022-11-20T04:55:29.400Z,89.11
2022-11-20T04:58:31.301Z,88.95
2022-11-20T05:01:33.753Z,88.67
2022-11-20T05:04:35.551Z,88.89
2022-11-20T05:07:37.333Z,88.58
2022-11-20T05:10:39.202Z,89.17
2022-11-20T05:13:41.454Z,89.12
2022-11-20T05:16:43.486Z,88.82
2022-11-20T05:19:48.383Z,89.33
2022-11-20T05:22:53.841Z,89.63
2022-11-20T05:25:59.068Z,90.51
2022-11-20T05:29:01.063Z,90.08
2022-11-20T05:32:03.408Z,90.50
2022-11-20T05:35:05.590Z,91.13
2022-11-20T05:38:07.781Z,91.68
2022-11-20T05:41:15.519Z,91.88
2022-11-20T05:44:17.525Z,92.03
2022-11-20T05:47:19.651Z,92.25
2022-11-20T05:50:21.412Z,92.71
2022-11-20T05:53:27.460Z,92.41
2022-11-20T05:56:29.612Z,92.59
2022-11-20T05:59:31.479Z,92.44
2022-11-20T06:02:37.094Z,92.60
2022-11-20T06:05:45.156Z,92.09
2022-11-20T06:08:47.043Z,92.26
2022-11-20T06:11:48.920Z,92.07
2022-11-20T06:14:50.768Z,92.40
2022-11-20T06:17:56.370Z,91.54
2022-11-20T06:21:07.316Z,92.24
2022-11-20T06:24:11.513Z,91.01
2022-11-20T06:27:13.272Z,90.78
2022-11-20T06:30:15.552Z,90.23
2022-11-20T06:33:17.618Z,90.35
2022-11-20T06:36:21.325Z,90.06
2022-11-20T06:39:23.402Z,90.91
2022-11-20T06:42:25.476Z,90.21
2022-11-20T06:45:27.337Z,90.56
2022-11-20T06:48:29.985Z,90.05
2022-11-20T06:51:32.030Z,89.84
2022-11-20T06:54:33.907Z,89.89
2022-11-20T06:57:36.008Z,90.21
2022-11-20T07:00:37.862Z,90.43
2022-11-20T07:03:39.795Z,91.62
2022-11-20T07:06:41.612Z,91.48
2022-11-20T07:09:48.536Z,90.90
2022-11-20T07:12:51.937Z,91.85
2022-11-20T07:15:54.053Z,92.02
2022-11-20T07:18:55.784Z,92.04
2022-11-20T07:21:57.599Z,92.01
2022-11-20T07:24:59.638Z,92.34
2022-11-20T07:28:03.039Z,92.11
2022-11-20T07:31:05.989Z,93.17
2022-11-20T07:34:09.016Z,92.64
2022-11-20T07:37:10.951Z,93.63
2022-11-20T07:40:17.196Z,93.12
2022-11-20T07:43:19.169Z,93.47
2022-11-20T07:46:22.583Z,92.63
2022-11-20T07:49:24.857Z,91.87
2022-11-20T07:52:27.349Z,90.64
2022-11-20T07:55:29.868Z,89.73
2022-11-20T07:58:34.207Z,90.50
2022-11-20T08:01:36.510Z,90.31
2022-11-20T08:04:38.652Z,89.32
2022-11-20T08:07:42.904Z,89.83
2022-11-20T08:10:45.361Z,88.95
2022-11-20T08:14:07.004Z,89.31
2022-11-20T08:17:09.076Z,87.33
2022-11-20T08:20:12.058Z,87.73
2022-11-20T08:23:14.794Z,87.31
2022-11-20T08:26:16.756Z,86.77
2022-11-20T08:29:19.576Z,86.58
2022-11-20T08:32:21.644Z,87.59
2022-11-20T08:35:24.270Z,87.05
2022-11-20T08:38:26.566Z,86.59
2022-11-20T08:41:33.200Z,87.59
2022-11-20T08:44:36.212Z,87.63
2022-11-20T08:47:38.602Z,87.87
2022-11-20T08:50:41.990Z,88.84
2022-11-20T08:53:45.367Z,90.97
2022-11-20T08:56:48.013Z,92.07
2022-11-20T09:00:05.673Z,92.99
2022-11-20T09:03:09.804Z,92.09
2022-11-20T09:06:12.476Z,93.27
2022-11-20T09:09:15.016Z,93.24
2022-11-20T09:12:25.049Z,92.36
2022-11-20T09:15:27.940Z,92.71
2022-11-20T09:18:33.150Z,92.17
2022-11-20T09:21:36.593Z,92.25
2022-11-20T09:24:39.606Z,92.31
2022-11-20T09:27:47.049Z,92.61
2022-11-20T09:30:49.156Z,92.39
2022-11-20T09:33:51.387Z,92.71
2022-11-20T09:36:53.229Z,90.70
2022-11-20T09:39:55.350Z,90.93
2022-11-20T09:43:23.100Z,89.81
2022-11-20T09:46:31.035Z,89.84
2022-11-20T09:49:55.884Z,88.93
2022-11-20T09:53:15.684Z,87.57
2022-11-20T09:56:22.437Z,86.52
2022-11-20T09:59:28.419Z,83.99
2022-11-20T10:02:42.667Z,80.75
2022-11-20T10:05:48.221Z,80.57
2022-11-20T10:09:01.306Z,80.35
2022-11-20T10:12:14.493Z,80.12
2022-11-20T10:15:45.497Z,80.06
2022-11-20T10:19:06.570Z,80.09
2022-11-20T10:22:43.753Z,80.40
2022-11-20T10:25:58.406Z,81.40
2022-11-20T10:29:27.048Z,83.02
2022-11-20T10:32:38.281Z,84.90
2022-11-20T10:35:50.952Z,85.13
2022-11-20T10:39:00.783Z,85.57
2022-11-20T10:42:04.822Z,85.81
2022-11-20T10:45:25.578Z,84.86
2022-11-20T10:48:29.848Z,85.89
2022-11-20T10:52:01.953Z,85.30
2022-11-20T10:55:20.197Z,84.30
2022-11-20T10:58:50.443Z,84.51
2022-11-20T11:01:53.397Z,84.07
2022-11-20T11:04:56.525Z,83.96
2022-11-20T11:08:01.135Z,83.63
2022-11-20T11:11:30.446Z,83.88
2022-11-20T11:14:46.436Z,83.37
2022-11-20T11:17:49.930Z,83.35
2022-11-20T11:20:53.329Z,82.74
2022-11-20T11:24:27.066Z,83.60
2022-11-20T11:27:26.968Z,84.26
2022-11-20T11:30:32.246Z,83.75
2022-11-20T11:33:37.682Z,83.71
2022-11-20T11:36:40.431Z,83.17
2022-11-20T11:39:44.227Z,82.21
2022-11-20T11:42:56.380Z,82.27
2022-11-20T11:46:00.688Z,82.27
2022-11-20T11:49:13.565Z,83.42
2022-11-20T11:52:20.738Z,83.40
2022-11-20T11:55:35.560Z,82.50
2022-11-20T11:58:46.714Z,81.65
2022-11-20T12:01:54.756Z,81.50
2022-11-20T12:05:18.335Z,81.21
2022-11-20T12:08:40.165Z,80.82
2022-11-20T12:11:54.868Z,82.00
2022-11-20T12:14:57.522Z,82.50
2022-11-20T12:17:59.928Z,82.28
2022-11-20T12:21:21.696Z,82.24
2022-11-20T12:24:36.615Z,82.39
2022-11-20T12:27:51.209Z,81.93
2022-11-20T12:31:20.584Z,82.69
2022-11-20T12:34:26.027Z,82.83
2022-11-20T12:37:47.505Z,82.76
2022-11-20T12:41:40.625Z,82.25
2022-11-20T12:45:07.338Z,81.39
2022-11-20T12:48:31.256Z,81.80
2022-11-20T12:51:41.058Z,82.75
2022-11-20T12:55:04.815Z,82.61
2022-11-20T12:58:17.574Z,82.44
2022-11-20T13:01:42.592Z,81.80
2022-11-20T13:04:57.242Z,83.14
2022-11-20T13:07:59.542Z,84.06
2022-11-20T13:11:07.633Z,84.44
2022-11-20T13:14:31.738Z,84.52
2022-11-20T13:17:55.401Z,84.84
2022-11-20T13:20:57.488Z,84.37
2022-11-20T13:24:21.495Z,85.82
2022-11-20T13:27:24.650Z,85.28
2022-11-20T13:30:31.025Z,84.46
2022-11-20T13:33:38.631Z,84.47
2022-11-20T13:36:54.785Z,84.21
2022-11-20T13:40:11.181Z,84.83
2022-11-20T13:43:21.298Z,84.04
2022-11-20T13:46:26.036Z,83.39
2022-11-20T13:49:38.939Z,83.43
2022-11-20T13:52:51.985Z,82.78
2022-11-20T13:56:35.309Z,83.98
2022-11-20T14:00:02.857Z,83.15
2022-11-20T14:03:37.901Z,83.46
2022-11-20T14:06:46.401Z,82.57
2022-11-20T14:09:53.996Z,82.17
2022-11-20T14:12:56.794Z,82.40
2022-11-20T14:15:59.633Z,82.68
2022-11-20T14:19:38.595Z,82.95
2022-11-20T14:22:41.079Z,83.13
2022-11-20T14:25:44.266Z,82.92
2022-11-20T14:28:49.890Z,83.57
2022-11-20T14:31:54.533Z,84.52
2022-11-20T14:35:00.617Z,84.90
2022-11-20T14:38:04.592Z,84.36
2022-11-20T14:41:21.864Z,85.09
2022-11-20T14:44:29.759Z,84.86
2022-11-20T14:47:32.522Z,85.38
2022-11-20T14:50:34.934Z,84.83
2022-11-20T14:53:36.883Z,85.12
2022-11-20T14:56:44.290Z,85.80
2022-11-20T14:59:46.271Z,84.94
2022-11-20T15:02:50.616Z,84.80
2022-11-20T15:05:52.714Z,84.67
2022-11-20T15:08:55.274Z,84.69
2022-11-20T15:11:59.543Z,84.58
2022-11-20T15:15:02.743Z,85.31
2022-11-20T15:18:05.616Z,84.50
2022-11-20T15:21:12.717Z,85.28
2022-11-20T15:24:14.617Z,85.00
2022-11-20T15:27:17.108Z,85.32
2022-11-20T15:30:21.218Z,86.21
2022-11-20T15:33:23.519Z,86.46
2022-11-20T15:36:25.630Z,86.44
2022-11-20T15:39:27.612Z,85.81
2022-11-20T15:42:29.576Z,85.76
2022-11-20T15:45:39.863Z,86.39
2022-11-20T15:48:48.534Z,86.48
2022-11-20T15:51:51.569Z,85.98
2022-11-20T15:54:53.608Z,86.27
2022-11-20T15:57:55.626Z,86.22
2022-11-20T16:00:57.635Z,85.73
2022-11-20T16:04:01.114Z,85.65
2022-11-20T16:07:04.138Z,85.64
2022-11-20T16:10:07.379Z,85.70
2022-11-20T16:13:37.262Z,85.51
2022-11-20T16:16:40.412Z,85.50
2022-11-20T16:19:42.840Z,86.58
2022-11-20T16:22:44.833Z,86.46
2022-11-20T16:25:47.277Z,86.50
2022-11-20T16:28:49.324Z,86.50
2022-11-20T16:31:51.263Z,86.50
2022-11-20T16:34:53.310Z,86.17
2022-11-20T16:37:56.212Z,85.99
2022-11-20T16:41:01.681Z,86.09
2022-11-20T16:44:08.224Z,85.86
2022-11-20T16:47:10.263Z,86.71
2022-11-20T16:50:12.526Z,86.88
2022-11-20T16:53:14.551Z,86.53
2022-11-20T16:56:18.736Z,86.53
2022-11-20T16:59:21.215Z,86.43
2022-11-20T17:02:23.342Z,86.38
2022-11-20T17:08:45.950Z,86.02
2022-11-20T17:11:48.791Z,84.97
2022-11-20T17:14:50.729Z,84.92
2022-11-20T17:17:52.779Z,84.78
2022-11-20T17:20:54.997Z,85.23
2022-11-20T17:23:57.135Z,85.40
2022-11-20T17:26:59.609Z,85.50
2022-11-20T17:30:01.666Z,86.09
2022-11-20T17:33:04.066Z,86.36
2022-11-20T17:36:08.092Z,86.52
2022-11-20T17:39:10.246Z,87.68
2022-11-20T17:42:27.239Z,88.97
2022-11-20T17:45:29.195Z,88.69
2022-11-20T17:48:31.783Z,89.09
2022-11-20T17:51:35.448Z,89.18
2022-11-20T17:54:37.822Z,88.85
2022-11-20T17:57:57.663Z,88.81
2022-11-20T18:01:07.043Z,88.33
2022-11-20T18:04:10.284Z,87.75
2022-11-20T18:07:12.947Z,88.29
2022-11-20T18:10:15.765Z,88.66
2022-11-20T18:13:17.873Z,87.83
2022-11-20T18:16:20.404Z,88.01
2022-11-20T18:19:28.708Z,88.07
2022-11-20T18:22:35.003Z,88.10
2022-11-20T18:25:40.684Z,88.44
2022-11-20T18:28:44.593Z,87.81
2022-11-20T18:31:47.644Z,87.27
2022-11-20T18:34:51.030Z,87.59
2022-11-20T18:37:53.509Z,87.43
2022-11-20T18:40:56.016Z,87.07
2022-11-20T18:44:18.054Z,87.55
2022-11-20T18:47:28.800Z,87.42
2022-11-20T18:50:31.501Z,87.03
2022-11-20T18:53:37.305Z,86.45
2022-11-20T18:56:40.946Z,87.09
2022-11-20T18:59:43.974Z,88.60
2022-11-20T19:02:47.444Z,88.97
2022-11-20T19:05:50.916Z,90.02
2022-11-20T19:08:54.407Z,90.08
2022-11-20T19:11:57.757Z,90.07
2022-11-20T19:15:00.551Z,90.22
2022-11-20T19:18:03.447Z,90.28
2022-11-20T19:21:10.368Z,90.00
2022-11-20T19:24:13.274Z,90.37
2022-11-20T19:27:15.576Z,89.90
2022-11-20T19:30:18.618Z,88.80
2022-11-20T19:33:21.326Z,89.14
2022-11-20T19:36:26.306Z,89.34
2022-11-20T19:39:29.778Z,89.67
2022-11-20T19:42:32.371Z,89.11
2022-11-20T19:45:34.393Z,88.31
2022-11-20T19:48:38.229Z,88.46
2022-11-20T19:51:45.646Z,88.51
2022-11-20T19:54:47.877Z,88.00
2022-11-20T19:57:50.075Z,88.39
2022-11-20T20:00:52.192Z,89.19
2022-11-20T20:03:55.445Z,90.12
2022-11-20T20:07:00.996Z,92.03
2022-11-20T20:10:03.321Z,92.86
2022-11-20T20:13:05.803Z,93.60
2022-11-20T20:16:12.284Z,93.63
2022-11-20T20:19:15.683Z,93.60
2022-11-20T20:22:18.211Z,93.28
2022-11-20T20:25:20.368Z,93.53
2022-11-20T20:28:23.291Z,93.70
2022-11-20T20:31:27.773Z,92.91
2022-11-20T20:34:31.813Z,94.57
2022-11-20T20:37:34.216Z,94.58
2022-11-20T20:40:49.669Z,95.50
2022-11-20T20:44:11.649Z,95.08
2022-11-20T20:47:14.470Z,94.44
2022-11-20T20:50:16.885Z,94.27
2022-11-20T20:53:20.694Z,95.87
2022-11-20T20:56:24.174Z,95.03
2022-11-20T20:59:26.511Z,94.93
2022-11-20T21:02:29.111Z,95.10
2022-11-20T21:05:31.635Z,95.13
2022-11-20T21:08:35.384Z,94.87
2022-11-20T21:11:41.125Z,95.27
2022-11-20T21:14:43.308Z,94.76
2022-11-20T21:17:45.443Z,93.56
2022-11-20T21:21:06.548Z,94.11
2022-11-20T21:24:08.979Z,94.85
2022-11-20T21:27:10.735Z,95.01
2022-11-20T21:30:13.282Z,94.75
2022-11-20T21:33:15.460Z,94.82
2022-11-20T21:36:21.508Z,94.82
2022-11-20T21:39:23.664Z,96.65
2022-11-20T21:42:25.807Z,97.51
2022-11-20T21:45:27.599Z,97.65
2022-11-20T21:48:31.813Z,97.92
2022-11-20T21:51:33.696Z,98.25
2022-11-20T21:54:36.358Z,98.09
2022-11-20T21:57:38.130Z,98.68
2022-11-20T22:00:39.909Z,97.89
2022-11-20T22:03:42.960Z,97.11
2022-11-20T22:06:44.904Z,96.57
2022-11-20T22:09:46.931Z,95.27
2022-11-20T22:12:49.035Z,94.66
2022-11-20T22:16:00.870Z,94.06
2022-11-20T22:19:04.212Z,93.60
2022-11-20T22:22:06.520Z,92.98
2022-11-20T22:25:09.087Z,92.69
2022-11-20T22:28:10.864Z,92.69
2022-11-20T22:31:13.768Z,91.94
2022-11-20T22:34:15.762Z,91.45
2022-11-20T22:37:18.618Z,92.30
2022-11-20T22:40:20.843Z,91.69
2022-11-20T22:43:24.157Z,91.52
2022-11-20T22:46:29.308Z,90.97
2022-11-20T22:49:32.514Z,91.09
2022-11-20T22:52:35.232Z,91.50
2022-11-20T22:55:37.396Z,91.03
2022-11-20T22:58:42.332Z,91.00
2022-11-20T23:01:44.518Z,90.72
2022-11-20T23:04:47.443Z,89.59
2022-11-20T23:07:49.198Z,89.81
2022-11-20T23:10:51.322Z,90.08
2022-11-20T23:13:58.802Z,90.62
2022-11-20T23:17:00.994Z,90.15
2022-11-20T23:20:03.891Z,89.43
2022-11-20T23:23:05.713Z,89.17
2022-11-20T23:26:11.963Z,89.21
2022-11-20T23:29:14.014Z,89.33
2022-11-20T23:32:15.912Z,89.35
2022-11-20T23:35:17.707Z,88.78
2022-11-20T23:38:20.520Z,88.78
2022-11-20T23:41:22.787Z,88.57
2022-11-20T23:44:25.525Z,88.61
2022-11-20T23:47:27.855Z,88.09
2022-11-20T23:50:29.704Z,87.95
2022-11-20T23:53:31.817Z,89.00
2022-11-20T23:56:33.609Z,89.11
2022-11-20T23:59:35.353Z,89.12
